Country
Station

 

Weather  for  Hunter U. S. Army Airfield  -  United States    United States

  
25 °C (77 °F)
    
 
 

Current METAR for Hunter U. S. Army Airfield is :

KSVN 171056Z AUTO 22005KT 10SM CLR 25/24 A3001 RMK AO2 SLP165 T02460235 $

 

This is a report for Hunter U. S. Army Airfield - United States.
 
The report was made 17 minutes ago, at 10:56 UTC .
The wind was blowing at a speed of 2.6 meters per second (5.8 miles per hour) from southwest (220°).
 
The temperature was 25 °C (77 °F), with a dew-point at 24 °C (75 °F).
The temperature felt like 26 °C (78 °F).
 
The atmospheric pressure was 1016 hPa (30.01 inHg).
The relative humidity was 94.2%.
 
The sky was clear.
 
The overall visibility was 16.1 kilometers (10.0 miles).
 

 
 
 
 

Country :   A   B   C   D   E   F   G   H   I   J   K   L   M   N   O   P   Q   R   S   T   U   V   W   Y   Z

 

Site Info  |  Disclaimer  |  Credits  |  Privacy
Contact us  |  Add to favorites
© 2013-2018 METARs - All rights reserved